sensor_id;sensor_type;location;lat;lon;timestamp;pressure;altitude;pressure_sealevel;temperature;humidity
57086;BME280;42964;42.910;23.792;2022-10-28T00:04:14;98986.06;;;7.64;81.60
57086;BME280;42964;42.910;23.792;2022-10-28T00:09:13;98979.84;;;7.58;81.59
57086;BME280;42964;42.910;23.792;2022-10-28T00:14:12;98985.88;;;7.58;81.90
57086;BME280;42964;42.910;23.792;2022-10-28T00:19:12;98977.06;;;7.52;82.35
57086;BME280;42964;42.910;23.792;2022-10-28T00:24:12;98976.91;;;7.47;82.49
57086;BME280;42964;42.910;23.792;2022-10-28T00:29:14;98972.50;;;7.43;82.51
57086;BME280;42964;42.910;23.792;2022-10-28T00:34:15;98966.25;;;7.38;82.64
57086;BME280;42964;42.910;23.792;2022-10-28T00:39:18;98973.88;;;7.33;82.35
57086;BME280;42964;42.910;23.792;2022-10-28T00:49:38;98970.19;;;7.25;83.22
57086;BME280;42964;42.910;23.792;2022-10-28T00:54:37;98969.97;;;7.19;83.19
57086;BME280;42964;42.910;23.792;2022-10-28T00:59:41;98972.41;;;7.14;82.57
57086;BME280;42964;42.910;23.792;2022-10-28T01:04:42;98973.91;;;7.08;83.51
57086;BME280;42964;42.910;23.792;2022-10-28T01:09:41;98970.94;;;6.95;83.15
57086;BME280;42964;42.910;23.792;2022-10-28T01:31:04;98968.78;;;6.56;85.48
57086;BME280;42964;42.910;23.792;2022-10-28T01:36:17;98968.41;;;6.46;85.79
57086;BME280;42964;42.910;23.792;2022-10-28T01:41:33;98975.13;;;6.40;85.42
57086;BME280;42964;42.910;23.792;2022-10-28T01:46:38;98967.81;;;6.29;86.07
57086;BME280;42964;42.910;23.792;2022-10-28T01:51:45;98973.00;;;6.30;85.50
57086;BME280;42964;42.910;23.792;2022-10-28T01:56:47;98977.25;;;6.28;85.97
57086;BME280;42964;42.910;23.792;2022-10-28T02:01:46;98972.91;;;6.27;86.01
57086;BME280;42964;42.910;23.792;2022-10-28T02:06:49;98979.72;;;6.25;86.06
57086;BME280;42964;42.910;23.792;2022-10-28T02:17:43;98975.28;;;6.21;85.83
57086;BME280;42964;42.910;23.792;2022-10-28T02:22:55;98969.19;;;6.19;86.28
57086;BME280;42964;42.910;23.792;2022-10-28T02:33:00;98974.97;;;6.12;85.57
57086;BME280;42964;42.910;23.792;2022-10-28T02:38:06;98976.63;;;6.11;86.08
57086;BME280;42964;42.910;23.792;2022-10-28T02:43:09;98976.53;;;6.08;85.74
57086;BME280;42964;42.910;23.792;2022-10-28T02:48:35;98978.00;;;6.02;86.33
57086;BME280;42964;42.910;23.792;2022-10-28T02:53:44;98980.38;;;5.95;86.06
57086;BME280;42964;42.910;23.792;2022-10-28T02:58:48;98975.94;;;5.91;85.59
57086;BME280;42964;42.910;23.792;2022-10-28T03:03:47;98989.50;;;5.87;86.52
57086;BME280;42964;42.910;23.792;2022-10-28T03:08:46;98989.31;;;5.83;86.22
57086;BME280;42964;42.910;23.792;2022-10-28T03:13:45;98983.91;;;5.75;86.10
57086;BME280;42964;42.910;23.792;2022-10-28T03:18:44;98991.63;;;5.75;86.48
57086;BME280;42964;42.910;23.792;2022-10-28T03:23:43;98984.41;;;5.66;86.16
57086;BME280;42964;42.910;23.792;2022-10-28T03:28:42;98984.31;;;5.63;86.08
57086;BME280;42964;42.910;23.792;2022-10-28T03:33:41;98983.28;;;5.60;86.37
57086;BME280;42964;42.910;23.792;2022-10-28T03:38:40;98982.25;;;5.54;87.08
57086;BME280;42964;42.910;23.792;2022-10-28T03:43:39;98980.25;;;5.47;87.34
57086;BME280;42964;42.910;23.792;2022-10-28T03:48:38;98973.19;;;5.42;87.59
57086;BME280;42964;42.910;23.792;2022-10-28T03:53:37;98986.97;;;5.44;87.02
57086;BME280;42964;42.910;23.792;2022-10-28T03:58:36;98985.16;;;5.41;87.27
57086;BME280;42964;42.910;23.792;2022-10-28T04:03:35;98985.16;;;5.41;86.98
57086;BME280;42964;42.910;23.792;2022-10-28T04:08:35;98983.34;;;5.39;87.01
57086;BME280;42964;42.910;23.792;2022-10-28T04:13:34;98984.88;;;5.33;87.16
57086;BME280;42964;42.910;23.792;2022-10-28T04:18:33;98983.06;;;5.31;87.17
57086;BME280;42964;42.910;23.792;2022-10-28T04:23:33;98985.38;;;5.25;87.38
57086;BME280;42964;42.910;23.792;2022-10-28T04:28:32;98986.09;;;5.21;87.38
57086;BME280;42964;42.910;23.792;2022-10-28T04:33:31;98983.94;;;5.10;87.51
57086;BME280;42964;42.910;23.792;2022-10-28T04:38:30;98985.38;;;5.04;87.49
57086;BME280;42964;42.910;23.792;2022-10-28T04:43:29;98979.13;;;4.97;87.40
57086;BME280;42964;42.910;23.792;2022-10-28T04:48:28;98978.84;;;4.91;86.95
57086;BME280;42964;42.910;23.792;2022-10-28T04:53:27;98985.41;;;4.84;86.85
57086;BME280;42964;42.910;23.792;2022-10-28T04:58:26;98984.28;;;4.78;86.76
57086;BME280;42964;42.910;23.792;2022-10-28T05:03:25;98997.09;;;4.76;86.51
57086;BME280;42964;42.910;23.792;2022-10-28T05:08:24;98992.63;;;4.72;86.54
57086;BME280;42964;42.910;23.792;2022-10-28T05:13:23;98996.94;;;4.73;86.66
57086;BME280;42964;42.910;23.792;2022-10-28T05:18:21;99000.47;;;4.75;86.76
57086;BME280;42964;42.910;23.792;2022-10-28T05:23:21;99001.22;;;4.72;86.92
57086;BME280;42964;42.910;23.792;2022-10-28T05:28:20;99007.19;;;4.71;87.17
57086;BME280;42964;42.910;23.792;2022-10-28T05:33:19;99006.75;;;4.82;87.15
57086;BME280;42964;42.910;23.792;2022-10-28T05:38:18;99005.31;;;4.88;87.24
57086;BME280;42964;42.910;23.792;2022-10-28T05:43:17;99013.56;;;5.01;87.47
57086;BME280;42964;42.910;23.792;2022-10-28T05:48:16;99016.59;;;5.11;87.31
57086;BME280;42964;42.910;23.792;2022-10-28T05:53:15;99016.78;;;5.16;87.79
57086;BME280;42964;42.910;23.792;2022-10-28T05:58:14;99010.34;;;5.27;87.56
57086;BME280;42964;42.910;23.792;2022-10-28T06:03:14;99026.13;;;5.35;87.71
57086;BME280;42964;42.910;23.792;2022-10-28T06:08:13;99025.44;;;5.39;87.86
57086;BME280;42964;42.910;23.792;2022-10-28T06:13:12;99028.03;;;5.41;87.98
57086;BME280;42964;42.910;23.792;2022-10-28T06:18:11;99030.22;;;5.52;87.56
57086;BME280;42964;42.910;23.792;2022-10-28T06:23:10;99036.00;;;5.68;87.05
57086;BME280;42964;42.910;23.792;2022-10-28T06:28:08;99048.50;;;5.81;86.93
57086;BME280;42964;42.910;23.792;2022-10-28T06:33:08;99039.66;;;5.97;86.37
57086;BME280;42964;42.910;23.792;2022-10-28T06:38:06;99042.13;;;6.16;86.14
57086;BME280;42964;42.910;23.792;2022-10-28T06:43:06;99044.56;;;6.36;86.81
57086;BME280;42964;42.910;23.792;2022-10-28T06:48:06;99030.63;;;6.55;86.35
57086;BME280;42964;42.910;23.792;2022-10-28T06:53:05;99029.81;;;6.81;87.17
57086;BME280;42964;42.910;23.792;2022-10-28T06:58:04;99030.66;;;7.06;87.49
57086;BME280;42964;42.910;23.792;2022-10-28T07:03:03;99026.28;;;7.31;87.52
57086;BME280;42964;42.910;23.792;2022-10-28T07:08:02;99029.72;;;7.57;87.97
57086;BME280;42964;42.910;23.792;2022-10-28T07:13:01;99037.47;;;7.84;87.97
57086;BME280;42964;42.910;23.792;2022-10-28T07:18:00;99035.53;;;8.05;87.07
57086;BME280;42964;42.910;23.792;2022-10-28T07:23:01;99036.00;;;8.21;86.05
57086;BME280;42964;42.910;23.792;2022-10-28T07:28:00;99022.75;;;8.40;85.11
57086;BME280;42964;42.910;23.792;2022-10-28T07:32:59;99029.53;;;8.68;84.97
57086;BME280;42964;42.910;23.792;2022-10-28T07:37:58;99024.00;;;8.88;84.53
57086;BME280;42964;42.910;23.792;2022-10-28T07:42:57;99017.84;;;9.16;84.21
57086;BME280;42964;42.910;23.792;2022-10-28T07:47:57;99029.00;;;9.47;82.93
57086;BME280;42964;42.910;23.792;2022-10-28T07:52:55;99015.75;;;9.72;82.33
57086;BME280;42964;42.910;23.792;2022-10-28T07:57:54;99021.47;;;9.97;81.72
57086;BME280;42964;42.910;23.792;2022-10-28T08:02:53;99010.72;;;10.19;81.19
57086;BME280;42964;42.910;23.792;2022-10-28T08:07:52;99010.47;;;10.51;80.40
57086;BME280;42964;42.910;23.792;2022-10-28T08:12:51;99005.69;;;10.73;79.00
57086;BME280;42964;42.910;23.792;2022-10-28T08:17:53;98995.81;;;11.00;78.25
57086;BME280;42964;42.910;23.792;2022-10-28T08:22:52;98998.84;;;11.25;76.72
57086;BME280;42964;42.910;23.792;2022-10-28T08:27:51;98996.59;;;11.46;75.95
57086;BME280;42964;42.910;23.792;2022-10-28T08:32:50;98995.16;;;11.67;75.11
57086;BME280;42964;42.910;23.792;2022-10-28T08:37:50;98993.75;;;11.91;74.21
57086;BME280;42964;42.910;23.792;2022-10-28T08:42:50;98982.69;;;12.08;72.64
57086;BME280;42964;42.910;23.792;2022-10-28T08:58:30;98985.38;;;12.89;69.08
57086;BME280;42964;42.910;23.792;2022-10-28T09:03:42;98963.91;;;13.17;68.34
57086;BME280;42964;42.910;23.792;2022-10-28T09:08:46;98966.75;;;13.53;67.52
57086;BME280;42964;42.910;23.792;2022-10-28T09:14:14;98953.91;;;13.81;65.72
57086;BME280;42964;42.910;23.792;2022-10-28T09:19:41;98946.22;;;14.10;64.55
57086;BME280;42964;42.910;23.792;2022-10-28T09:24:50;98937.59;;;14.37;61.74
57086;BME280;42964;42.910;23.792;2022-10-28T09:35:04;98927.25;;;14.87;58.75
57086;BME280;42964;42.910;23.792;2022-10-28T09:40:16;98922.03;;;15.19;57.07
57086;BME280;42964;42.910;23.792;2022-10-28T09:45:21;98919.38;;;15.51;56.25
57086;BME280;42964;42.910;23.792;2022-10-28T09:50:29;98908.84;;;15.82;55.35
57086;BME280;42964;42.910;23.792;2022-10-28T09:55:28;98892.19;;;16.03;54.00
57086;BME280;42964;42.910;23.792;2022-10-28T10:00:28;98900.81;;;16.22;53.56
57086;BME280;42964;42.910;23.792;2022-10-28T10:05:26;98893.72;;;16.39;51.96
57086;BME280;42964;42.910;23.792;2022-10-28T10:15:35;98875.97;;;16.77;50.14
57086;BME280;42964;42.910;23.792;2022-10-28T10:25:44;98864.06;;;17.41;48.49
57086;BME280;42964;42.910;23.792;2022-10-28T10:30:59;98859.53;;;17.55;47.70
57086;BME280;42964;42.910;23.792;2022-10-28T10:36:03;98863.72;;;17.71;46.40
57086;BME280;42964;42.910;23.792;2022-10-28T10:41:03;98849.50;;;17.92;44.80
57086;BME280;42964;42.910;23.792;2022-10-28T10:46:12;98850.91;;;18.16;45.34
57086;BME280;42964;42.910;23.792;2022-10-28T10:51:24;98843.75;;;18.28;45.13
57086;BME280;42964;42.910;23.792;2022-10-28T10:56:27;98832.97;;;18.43;44.58
57086;BME280;42964;42.910;23.792;2022-10-28T11:01:30;98829.28;;;18.56;44.07
57086;BME280;42964;42.910;23.792;2022-10-28T11:06:33;98824.72;;;18.69;44.08
57086;BME280;42964;42.910;23.792;2022-10-28T11:11:36;98816.81;;;18.71;40.71
57086;BME280;42964;42.910;23.792;2022-10-28T11:16:58;98818.19;;;18.93;40.58
57086;BME280;42964;42.910;23.792;2022-10-28T11:27:26;98812.34;;;19.24;41.35
57086;BME280;42964;42.910;23.792;2022-10-28T11:38:18;98799.66;;;19.44;39.84
57086;BME280;42964;42.910;23.792;2022-10-28T12:15:23;98775.72;;;19.99;35.56
57086;BME280;42964;42.910;23.792;2022-10-28T12:20:36;98779.94;;;20.06;34.74
57086;BME280;42964;42.910;23.792;2022-10-28T12:25:40;98759.56;;;20.14;35.23
57086;BME280;42964;42.910;23.792;2022-10-28T12:30:41;98764.88;;;20.11;35.03
57086;BME280;42964;42.910;23.792;2022-10-28T12:35:50;98755.09;;;20.16;34.35
57086;BME280;42964;42.910;23.792;2022-10-28T12:40:58;98758.66;;;20.14;33.43
57086;BME280;42964;42.910;23.792;2022-10-28T12:46:01;98759.47;;;20.17;33.18
57086;BME280;42964;42.910;23.792;2022-10-28T12:51:05;98754.28;;;20.14;33.35
57086;BME280;42964;42.910;23.792;2022-10-28T12:56:12;98752.19;;;20.28;33.44
57086;BME280;42964;42.910;23.792;2022-10-28T13:01:16;98746.69;;;20.38;33.10
57086;BME280;42964;42.910;23.792;2022-10-28T13:22:34;98735.22;;;20.39;33.42
57086;BME280;42964;42.910;23.792;2022-10-28T13:27:39;98737.38;;;20.23;33.87
57086;BME280;42964;42.910;23.792;2022-10-28T13:32:39;98734.41;;;20.37;33.88
57086;BME280;42964;42.910;23.792;2022-10-28T13:37:38;98725.72;;;20.33;34.16
57086;BME280;42964;42.910;23.792;2022-10-28T13:47:40;98722.66;;;20.14;33.98
57086;BME280;42964;42.910;23.792;2022-10-28T13:52:44;98727.78;;;20.20;34.34
57086;BME280;42964;42.910;23.792;2022-10-28T13:57:45;98721.66;;;20.18;33.99
57086;BME280;42964;42.910;23.792;2022-10-28T14:02:48;98731.59;;;20.07;33.79
57086;BME280;42964;42.910;23.792;2022-10-28T14:13:04;98731.13;;;19.91;33.61
57086;BME280;42964;42.910;23.792;2022-10-28T14:18:21;98727.66;;;19.87;33.87
57086;BME280;42964;42.910;23.792;2022-10-28T14:33:24;98731.91;;;19.54;34.38
57086;BME280;42964;42.910;23.792;2022-10-28T14:49:01;98732.22;;;18.95;35.26
57086;BME280;42964;42.910;23.792;2022-10-28T14:54:07;98735.88;;;18.87;35.86
57086;BME280;42964;42.910;23.792;2022-10-28T14:59:30;98742.50;;;18.58;36.50
57086;BME280;42964;42.910;23.792;2022-10-28T15:04:31;98737.66;;;18.33;36.94
57086;BME280;42964;42.910;23.792;2022-10-28T15:09:31;98745.75;;;18.21;37.39
57086;BME280;42964;42.910;23.792;2022-10-28T15:19:38;98742.03;;;17.79;38.04
57086;BME280;42964;42.910;23.792;2022-10-28T15:24:38;98745.66;;;17.65;38.21
57086;BME280;42964;42.910;23.792;2022-10-28T15:29:37;98747.66;;;17.48;39.08
57086;BME280;42964;42.910;23.792;2022-10-28T15:34:36;98757.56;;;17.24;39.98
57086;BME280;42964;42.910;23.792;2022-10-28T15:39:36;98762.25;;;16.95;41.02
57086;BME280;42964;42.910;23.792;2022-10-28T15:44:36;98768.63;;;16.63;41.93
57086;BME280;42964;42.910;23.792;2022-10-28T15:49:38;98780.28;;;16.33;42.71
57086;BME280;42964;42.910;23.792;2022-10-28T15:54:38;98783.09;;;16.03;43.06
57086;BME280;42964;42.910;23.792;2022-10-28T15:59:37;98789.34;;;15.75;43.73
57086;BME280;42964;42.910;23.792;2022-10-28T16:04:40;98792.94;;;15.51;44.19
57086;BME280;42964;42.910;23.792;2022-10-28T16:09:46;98792.16;;;15.19;44.31
57086;BME280;42964;42.910;23.792;2022-10-28T16:14:56;98790.47;;;15.00;44.88
57086;BME280;42964;42.910;23.792;2022-10-28T16:19:59;98795.75;;;14.77;45.44
57086;BME280;42964;42.910;23.792;2022-10-28T16:24:59;98798.34;;;14.51;45.74
57086;BME280;42964;42.910;23.792;2022-10-28T16:29:58;98811.41;;;14.38;46.41
57086;BME280;42964;42.910;23.792;2022-10-28T16:34:57;98798.31;;;14.11;46.82
57086;BME280;42964;42.910;23.792;2022-10-28T16:39:56;98817.44;;;14.04;47.22
57086;BME280;42964;42.910;23.792;2022-10-28T16:44:55;98815.66;;;13.86;47.86
57086;BME280;42964;42.910;23.792;2022-10-28T16:49:54;98816.44;;;13.68;48.74
57086;BME280;42964;42.910;23.792;2022-10-28T16:54:54;98817.19;;;13.44;50.28
57086;BME280;42964;42.910;23.792;2022-10-28T16:59:53;98822.25;;;13.16;50.54
57086;BME280;42964;42.910;23.792;2022-10-28T17:04:52;98822.19;;;13.01;51.27
57086;BME280;42964;42.910;23.792;2022-10-28T17:09:52;98829.91;;;12.87;51.78
57086;BME280;42964;42.910;23.792;2022-10-28T17:14:51;98829.78;;;12.71;52.45
57086;BME280;42964;42.910;23.792;2022-10-28T17:19:50;98836.63;;;12.57;53.10
57086;BME280;42964;42.910;23.792;2022-10-28T17:24:49;98838.25;;;12.44;53.95
57086;BME280;42964;42.910;23.792;2022-10-28T17:29:48;98846.84;;;12.36;54.33
57086;BME280;42964;42.910;23.792;2022-10-28T17:34:47;98841.50;;;12.23;54.52
57086;BME280;42964;42.910;23.792;2022-10-28T17:39:46;98844.91;;;12.19;54.49
57086;BME280;42964;42.910;23.792;2022-10-28T17:44:45;98849.19;;;12.11;55.52
57086;BME280;42964;42.910;23.792;2022-10-28T17:49:44;98846.38;;;11.93;56.07
57086;BME280;42964;42.910;23.792;2022-10-28T17:54:43;98844.53;;;11.84;57.18
57086;BME280;42964;42.910;23.792;2022-10-28T17:59:44;98842.69;;;11.72;57.62
57086;BME280;42964;42.910;23.792;2022-10-28T18:04:43;98847.66;;;11.54;59.27
57086;BME280;42964;42.910;23.792;2022-10-28T18:09:42;98850.03;;;11.37;58.48
57086;BME280;42964;42.910;23.792;2022-10-28T18:14:41;98843.84;;;11.27;59.88
57086;BME280;42964;42.910;23.792;2022-10-28T18:19:40;98841.94;;;11.17;59.77
57086;BME280;42964;42.910;23.792;2022-10-28T18:24:39;98846.19;;;11.10;60.14
57086;BME280;42964;42.910;23.792;2022-10-28T18:29:38;98843.47;;;11.02;60.68
57086;BME280;42964;42.910;23.792;2022-10-28T18:34:37;98839.88;;;10.93;60.94
57086;BME280;42964;42.910;23.792;2022-10-28T18:39:36;98839.75;;;10.85;61.50
57086;BME280;42964;42.910;23.792;2022-10-28T18:44:35;98849.13;;;10.77;62.16
57086;BME280;42964;42.910;23.792;2022-10-28T18:49:35;98855.84;;;10.66;63.00
57086;BME280;42964;42.910;23.792;2022-10-28T18:54:34;98862.69;;;10.59;63.43
57086;BME280;42964;42.910;23.792;2022-10-28T18:59:33;98856.41;;;10.46;64.69
57086;BME280;42964;42.910;23.792;2022-10-28T19:04:32;98860.63;;;10.39;65.04
57086;BME280;42964;42.910;23.792;2022-10-28T19:09:31;98867.44;;;10.34;64.66
57086;BME280;42964;42.910;23.792;2022-10-28T19:14:30;98859.44;;;10.22;64.81
57086;BME280;42964;42.910;23.792;2022-10-28T19:19:29;98867.16;;;10.17;65.19
57086;BME280;42964;42.910;23.792;2022-10-28T19:24:28;98872.16;;;10.08;66.45
57086;BME280;42964;42.910;23.792;2022-10-28T19:29:27;98875.31;;;9.92;67.21
57086;BME280;42964;42.910;23.792;2022-10-28T19:34:26;98877.72;;;9.83;67.93
57086;BME280;42964;42.910;23.792;2022-10-28T19:39:25;98881.94;;;9.77;67.80
57086;BME280;42964;42.910;23.792;2022-10-28T19:44:26;98880.06;;;9.70;68.11
57086;BME280;42964;42.910;23.792;2022-10-28T19:49:25;98885.97;;;9.63;68.27
57086;BME280;42964;42.910;23.792;2022-10-28T19:54:24;98878.00;;;9.54;68.70
57086;BME280;42964;42.910;23.792;2022-10-28T19:59:23;98885.69;;;9.51;68.87
57086;BME280;42964;42.910;23.792;2022-10-28T20:04:22;98897.66;;;9.44;69.15
57086;BME280;42964;42.910;23.792;2022-10-28T20:09:21;98890.41;;;9.29;70.43
57086;BME280;42964;42.910;23.792;2022-10-28T20:14:20;98898.03;;;9.23;70.73
57086;BME280;42964;42.910;23.792;2022-10-28T20:19:19;98896.16;;;9.18;71.14
57086;BME280;42964;42.910;23.792;2022-10-28T20:24:18;98888.16;;;9.07;71.56
57086;BME280;42964;42.910;23.792;2022-10-28T20:29:18;98888.16;;;9.07;71.56
57086;BME280;42964;42.910;23.792;2022-10-28T20:34:16;98893.25;;;9.04;71.37
57086;BME280;42964;42.910;23.792;2022-10-28T20:39:18;98893.03;;;8.94;71.76
57086;BME280;42964;42.910;23.792;2022-10-28T20:44:20;98886.00;;;8.89;72.22
57086;BME280;42964;42.910;23.792;2022-10-28T20:49:19;98894.34;;;8.77;72.44
57086;BME280;42964;42.910;23.792;2022-10-28T20:54:18;98896.78;;;8.71;72.82
57086;BME280;42964;42.910;23.792;2022-10-28T20:59:17;98899.22;;;8.65;72.98
57086;BME280;42964;42.910;23.792;2022-10-28T21:04:16;98898.88;;;8.51;73.76
57086;BME280;42964;42.910;23.792;2022-10-28T21:09:15;98896.13;;;8.45;73.97
57086;BME280;42964;42.910;23.792;2022-10-28T21:14:14;98896.84;;;8.39;74.42
57086;BME280;42964;42.910;23.792;2022-10-28T21:19:13;98897.59;;;8.35;74.24
57086;BME280;42964;42.910;23.792;2022-10-28T21:24:12;98883.56;;;8.27;74.38
57086;BME280;42964;42.910;23.792;2022-10-28T21:29:11;98883.44;;;8.22;75.14
57086;BME280;42964;42.910;23.792;2022-10-28T21:34:10;98882.44;;;8.16;75.49
57086;BME280;42964;42.910;23.792;2022-10-28T21:39:09;98885.50;;;8.02;75.71
57086;BME280;42964;42.910;23.792;2022-10-28T21:44:08;98884.34;;;7.91;76.56
57086;BME280;42964;42.910;23.792;2022-10-28T21:49:07;98881.56;;;7.83;76.49
57086;BME280;42964;42.910;23.792;2022-10-28T21:54:06;98877.19;;;7.82;76.28
57086;BME280;42964;42.910;23.792;2022-10-28T21:59:05;98882.16;;;7.75;76.79
57086;BME280;42964;42.910;23.792;2022-10-28T22:04:04;98883.69;;;7.68;76.89
57086;BME280;42964;42.910;23.792;2022-10-28T22:09:03;98876.72;;;7.64;76.61
57086;BME280;42964;42.910;23.792;2022-10-28T22:14:03;98878.25;;;7.59;76.79
57086;BME280;42964;42.910;23.792;2022-10-28T22:19:05;98882.28;;;7.49;77.57
57086;BME280;42964;42.910;23.792;2022-10-28T22:24:05;98886.44;;;7.44;77.96
57086;BME280;42964;42.910;23.792;2022-10-28T22:29:04;98887.78;;;7.33;78.32
57086;BME280;42964;42.910;23.792;2022-10-28T22:34:03;98886.69;;;7.24;78.64
57086;BME280;42964;42.910;23.792;2022-10-28T22:39:03;98883.91;;;7.18;78.72
57086;BME280;42964;42.910;23.792;2022-10-28T22:44:02;98882.03;;;7.13;78.18
57086;BME280;42964;42.910;23.792;2022-10-28T22:49:02;98872.38;;;7.07;78.84
57086;BME280;42964;42.910;23.792;2022-10-28T22:54:02;98867.97;;;7.03;78.93
57086;BME280;42964;42.910;23.792;2022-10-28T22:59:01;98868.59;;;6.96;79.20
57086;BME280;42964;42.910;23.792;2022-10-28T23:04:00;98861.47;;;6.87;79.15
57086;BME280;42964;42.910;23.792;2022-10-28T23:08:59;98856.97;;;6.81;79.64
57086;BME280;42964;42.910;23.792;2022-10-28T23:13:58;98861.09;;;6.76;79.18
57086;BME280;42964;42.910;23.792;2022-10-28T23:18:59;98848.94;;;6.72;79.65
57086;BME280;42964;42.910;23.792;2022-10-28T23:23:59;98853.19;;;6.70;80.45
57086;BME280;42964;42.910;23.792;2022-10-28T23:28:58;98857.94;;;6.58;80.36
57086;BME280;42964;42.910;23.792;2022-10-28T23:33:58;98859.56;;;6.56;80.89
57086;BME280;42964;42.910;23.792;2022-10-28T23:38:57;98861.75;;;6.44;81.07
57086;BME280;42964;42.910;23.792;2022-10-28T23:43:56;98861.59;;;6.39;81.28
57086;BME280;42964;42.910;23.792;2022-10-28T23:48:58;98858.78;;;6.31;81.55
57086;BME280;42964;42.910;23.792;2022-10-28T23:53:57;98858.63;;;6.27;81.10
57086;BME280;42964;42.910;23.792;2022-10-28T23:58:56;98860.06;;;6.18;81.28
